FredonyerEastRWIS Atmospheric Data: 11/08/2018 Summary  Detailed Graphs  Station List

  Temperature     Wind Precipitation Visibility
Timestamp Air Wet
Bulb
Dew-
point
24-hr
Max
24-hr
Min
Relative
Humidity
Atmospheric
Pressure
Avg
Speed
Avg
Dir
Spot
Speed
Spot
Dir
Max
Speed
Max
Dir
  Rate Situation Start End 1 hr 3 hr 6 hr 12 hr 24 hr   Situation
Date Time °F °F °F °F °F % in Hg mph ° mph ° mph ° Y/N in/hr text Date Time Date Time in in in in in mi text
11/08/2018 12:08 AM 23.72 20.12 9.68 57.20 21.92 54.0 Not Reported 1.79 N 1.34 N 1.57 NE No 0.000 No Precipitation     0.000 0.000 0.000 0.000 0.000 Not Reported Not Reported
11/08/2018 12:23 AM 23.54 20.12 10.58 57.20 21.92 57.0 Not Reported 1.34 NW 0.89 NW 1.57 N No 0.000 No Precipitation     0.000 0.000 0.000 0.000 0.000 Not Reported Not Reported
11/08/2018 12:38 AM 23.18 19.76 10.58 57.20 21.92 58.0 Not Reported 0.89 NW 2.01 NW 2.01 NW No 0.000 No Precipitation     0.000 0.000 0.000 0.000 0.000 Not Reported Not Reported
11/08/2018 12:53 AM 23.00 19.58 9.50 57.20 21.92 55.0 Not Reported 1.12 NE 2.24 NW 1.57 N No 0.000 No Precipitation     0.000 0.000 0.000 0.000 0.000 Not Reported Not Reported
11/08/2018 01:08 AM 22.64 19.40 10.22 57.20 21.92 58.0 Not Reported 2.01 N 1.57 N 2.24 NW No 0.000 No Precipitation     0.000 0.000 0.000 0.000 0.000 Not Reported Not Reported
11/08/2018 01:23 AM 22.82 19.58 10.04 57.20 21.92 57.0 Not Reported 1.34 N 0.89 N 3.36 NW No 0.000 No Precipitation     0.000 0.000 0.000 0.000 0.000 Not Reported Not Reported
11/08/2018 01:38 AM 22.46 19.22 10.40 57.20 21.92 59.0 Not Reported 0.89 N 0.89 N 1.79 NW No 0.000 No Precipitation     0.000 0.000 0.000 0.000 0.000 Not Reported Not Reported
11/08/2018 01:53 AM 22.10 18.86 9.14 57.20 21.92 56.0 Not Reported 1.57 N 1.34 NW 2.46 NW No 0.000 No Precipitation     0.000 0.000 0.000 0.000 0.000 Not Reported Not Reported
11/08/2018 02:08 AM 22.10 19.04 10.22 57.20 21.92 59.0 Not Reported 1.12 N 1.34 NW 1.79 N No 0.000 No Precipitation     0.000 0.000 0.000 0.000 0.000 Not Reported Not Reported
11/08/2018 02:23 AM 23.18 19.94 11.30 57.20 21.92 59.0 Not Reported 1.12 NW 0.67 W 2.46 N No 0.000 No Precipitation     0.000 0.000 0.000 0.000 0.000 Not Reported Not Reported
11/08/2018 02:38 AM 22.82 19.58 10.40 57.20 21.92 58.0 Not Reported 1.12 NW 1.12 N 1.79 N No 0.000 No Precipitation     0.000 0.000 0.000 0.000 0.000 Not Reported Not Reported
11/08/2018 02:53 AM 23.18 19.94 10.40 57.20 21.92 57.0 Not Reported 1.12 W 1.57 NW 2.46 NE No 0.000 No Precipitation     0.000 0.000 0.000 0.000 0.000 Not Reported Not Reported
11/08/2018 03:08 AM 23.54 19.94 10.40 57.20 21.92 56.0 Not Reported 2.24 N 1.79 N 1.57 SE No 0.000 No Precipitation     0.000 0.000 0.000 0.000 0.000 Not Reported Not Reported
11/08/2018 03:23 AM 23.72 20.30 10.94 57.20 21.92 57.0 Not Reported 1.12 N 1.79 NW 3.13 N No 0.000 No Precipitation     0.000 0.000 0.000 0.000 0.000 Not Reported Not Reported
11/08/2018 03:38 AM 26.06 22.28 12.20 57.20 21.92 55.0 Not Reported 2.91 N 3.58 N 3.13 NW No 0.000 No Precipitation     0.000 0.000 0.000 0.000 0.000 Not Reported Not Reported
11/08/2018 03:53 AM 23.90 20.48 11.12 57.20 21.92 57.0 Not Reported 1.57 NE 2.91 NW 3.36 NE No 0.000 No Precipitation     0.000 0.000 0.000 0.000 0.000 Not Reported Not Reported
11/08/2018 04:08 AM 23.00 19.76 10.94 57.20 21.92 59.0 Not Reported 1.34 N 2.46 N 2.91 NW No 0.000 No Precipitation     0.000 0.000 0.000 0.000 0.000 Not Reported Not Reported
11/08/2018 04:23 AM 22.46 19.40 10.94 57.20 21.92 61.0 Not Reported 0.67 N 1.34 N 2.01 N No 0.000 No Precipitation     0.000 0.000 0.000 0.000 0.000 Not Reported Not Reported
11/08/2018 04:38 AM 22.64 19.58 11.30 57.20 21.92 61.0 Not Reported 1.57 N 1.79 N 1.34 N No 0.000 No Precipitation     0.000 0.000 0.000 0.000 0.000 Not Reported Not Reported
11/08/2018 04:53 AM 22.10 19.22 10.76 57.20 21.92 61.0 Not Reported 0.89 E 0.22 N 2.68 N No 0.000 No Precipitation     0.000 0.000 0.000 0.000 0.000 Not Reported Not Reported
11/08/2018 05:08 AM 21.92 19.04 11.12 57.20 21.92 62.0 Not Reported 0.22 NE 0.67 N 2.01 NE No 0.000 No Precipitation     0.000 0.000 0.000 0.000 0.000 Not Reported Not Reported
11/08/2018 05:23 AM 21.74 18.86 10.94 57.20 21.74 62.0 Not Reported 1.12 NE 0.89 NW 3.58 NE No 0.000 No Precipitation     0.000 0.000 0.000 0.000 0.000 Not Reported Not Reported
11/08/2018 05:38 AM 21.02 18.50 11.30 57.20 20.84 65.0 Not Reported 2.01 N 2.01 E 2.01 N No 0.000 No Precipitation     0.000 0.000 0.000 0.000 0.000 Not Reported Not Reported
11/08/2018 05:53 AM 21.56 18.68 10.58 57.20 20.66 62.0 Not Reported 1.79 N 0.89 N 2.46 N No 0.000 No Precipitation     0.000 0.000 0.000 0.000 0.000 Not Reported Not Reported
11/08/2018 06:08 AM 20.66 18.14 11.12 57.20 20.66 65.0 Not Reported 1.12 N 1.34 N 2.46 N No 0.000 No Precipitation     0.000 0.000 0.000 0.000 0.000 Not Reported Not Reported
11/08/2018 06:23 AM 20.12 17.78 10.76 57.20 20.12 66.0 Not Reported 1.57 N 1.34 N 1.79 NE No 0.000 No Precipitation     0.000 0.000 0.000 0.000 0.000 Not Reported Not Reported
11/08/2018 06:38 AM 20.48 18.14 11.30 57.20 20.12 66.0 Not Reported 1.34 N 1.12 N 1.57 N No 0.000 No Precipitation     0.000 0.000 0.000 0.000 0.000 Not Reported Not Reported
11/08/2018 06:53 AM 20.12 17.78 10.94 57.20 20.12 66.0 Not Reported 1.79 N 1.12 N 2.46 N No 0.000 No Precipitation     0.000 0.000 0.000 0.000 0.000 Not Reported Not Reported
11/08/2018 07:08 AM 20.48 17.96 10.94 57.20 20.12 65.0 Not Reported 1.34 N 1.34 N 2.24 NW No 0.000 No Precipitation     0.000 0.000 0.000 0.000 0.000 Not Reported Not Reported
11/08/2018 07:23 AM 20.66 18.14 11.30 57.20 20.12 66.0 Not Reported 1.34 N 1.34 N 2.01 N No 0.000 No Precipitation     0.000 0.000 0.000 0.000 0.000 Not Reported Not Reported
11/08/2018 07:38 AM 22.64 19.76 12.20 57.20 20.12 63.0 Not Reported 0.67 NE 1.34 NW 2.24 N No 0.000 No Precipitation     0.000 0.000 0.000 0.000 0.000 Not Reported Not Reported
11/08/2018 07:53 AM 24.62 21.20 12.20 57.20 20.12 58.0 Not Reported 1.12 N 1.57 E 2.68 N No 0.000 No Precipitation     0.000 0.000 0.000 0.000 0.000 Not Reported Not Reported
11/08/2018 08:08 AM 27.32 23.18 12.74 57.20 20.12 53.0 Not Reported 2.46 SE 1.79 SE 3.58 E No 0.000 No Precipitation     0.000 0.000 0.000 0.000 0.000 Not Reported Not Reported
11/08/2018 08:23 AM 28.58 23.90 12.74 57.20 20.12 51.0 Not Reported 2.24 E 2.01 E 3.58 SE No 0.000 No Precipitation     0.000 0.000 0.000 0.000 0.000 Not Reported Not Reported
11/08/2018 08:38 AM 30.56 25.34 12.92 57.20 20.12 47.0 Not Reported 1.57 SE 2.68 N 3.13 SE No 0.000 No Precipitation     0.000 0.000 0.000 0.000 0.000 Not Reported Not Reported
11/08/2018 08:53 AM 31.64 26.06 13.10 57.20 20.12 45.0 Not Reported 3.80 NE 2.68 SE 10.07 NE No 0.000 No Precipitation     0.000 0.000 0.000 0.000 0.000 Not Reported Not Reported
11/08/2018 09:08 AM 33.44 27.50 13.10 57.20 20.12 42.0 Not Reported 1.34 S 3.80 SE 6.26 S No 0.000 No Precipitation     0.000 0.000 0.000 0.000 0.000 Not Reported Not Reported
11/08/2018 09:23 AM 34.52 28.04 12.74 57.20 20.12 40.0 Not Reported 2.46 NE 2.46 E 4.47 E No 0.000 No Precipitation     0.000 0.000 0.000 0.000 0.000 Not Reported Not Reported
11/08/2018 09:38 AM 35.24 28.40 12.56 57.20 20.12 38.0 Not Reported 2.91 NE 3.13 NE 8.28 E No 0.000 No Precipitation     0.000 0.000 0.000 0.000 0.000 Not Reported Not Reported
11/08/2018 09:53 AM 35.60 28.58 12.38 57.20 20.12 37.0 Not Reported 3.58 NE 4.25 NE 6.49 S No 0.000 No Precipitation     0.000 0.000 0.000 0.000 0.000 Not Reported Not Reported
11/08/2018 10:08 AM 36.68 29.30 12.20 57.20 20.12 35.0 Not Reported 2.68 N 6.71 E 5.14 NE No 0.000 No Precipitation     0.000 0.000 0.000 0.000 0.000 Not Reported Not Reported
11/08/2018 10:23 AM 36.86 29.48 12.02 57.20 20.12 35.0 Not Reported 4.47 SE 5.37 NE 6.26 SE No 0.000 No Precipitation     0.000 0.000 0.000 0.000 0.000 Not Reported Not Reported
11/08/2018 10:38 AM 38.84 30.74 12.38 57.20 20.12 32.0 Not Reported 2.01 S 4.47 E 7.38 E No 0.000 No Precipitation     0.000 0.000 0.000 0.000 0.000 Not Reported Not Reported
11/08/2018 10:53 AM 39.38 30.92 12.74 57.20 20.12 32.0 Not Reported 4.25 S 4.25 S 5.37 SE No 0.000 No Precipitation     0.000 0.000 0.000 0.000 0.000 Not Reported Not Reported
11/08/2018 11:08 AM 37.76 29.84 11.84 57.20 20.12 33.0 Not Reported 8.95 S 2.46 E 7.16 S No 0.000 No Precipitation     0.000 0.000 0.000 0.000 0.000 Not Reported Not Reported
11/08/2018 11:23 AM 39.20 30.56 11.12 57.20 20.12 30.0 Not Reported 4.47 E 5.14 SE 7.61 S No 0.000 No Precipitation     0.000 0.000 0.000 0.000 0.000 Not Reported Not Reported
11/08/2018 11:38 AM 39.92 31.10 11.48 57.20 20.12 30.0 Not Reported 2.91 NE 2.46 S 8.05 SE No 0.000 No Precipitation     0.000 0.000 0.000 0.000 0.000 Not Reported Not Reported
11/08/2018 11:53 AM 40.64 31.46 11.12 57.20 20.12 28.0 Not Reported 2.24 SW 4.70 SE 8.05 E No 0.000 No Precipitation     0.000 0.000 0.000 0.000 0.000 Not Reported Not Reported
11/08/2018 12:08 PM 42.08 32.18 10.94 57.20 20.12 27.0 Not Reported 3.13 SW 2.24 S 9.62 S No 0.000 No Precipitation     0.000 0.000 0.000 0.000 0.000 Not Reported Not Reported
11/08/2018 12:23 PM 41.00 31.82 11.48 57.20 20.12 29.0 Not Reported 3.13 SE 7.16 S 8.28 E No 0.000 No Precipitation     0.000 0.000 0.000 0.000 0.000 Not Reported Not Reported
11/08/2018 12:38 PM 42.08 32.18 10.94 57.20 20.12 27.0 Not Reported 3.80 NE 5.82 E 7.83 SW No 0.000 No Precipitation     0.000 0.000 0.000 0.000 0.000 Not Reported Not Reported
11/08/2018 12:53 PM 43.34 32.72 9.86 57.20 20.12 24.0 Not Reported 3.36 SW 3.80 SW 7.83 SE No 0.000 No Precipitation     0.000 0.000 0.000 0.000 0.000 Not Reported Not Reported
11/08/2018 01:08 PM 42.62 32.36 10.04 57.20 20.12 25.0 Not Reported 7.38 S 2.91 NW 8.72 E No 0.000 No Precipitation     0.000 0.000 0.000 0.000 0.000 Not Reported Not Reported
11/08/2018 01:23 PM 44.06 33.26 10.22 57.20 20.12 24.0 Not Reported 3.80 NE 4.92 SE 7.61 NE No 0.000 No Precipitation     0.000 0.000 0.000 0.000 0.000 Not Reported Not Reported
11/08/2018 01:38 PM 43.70 32.90 9.68 57.20 20.12 24.0 Not Reported 3.80 E 3.58 S 7.16 S No 0.000 No Precipitation     0.000 0.000 0.000 0.000 0.000 Not Reported Not Reported
11/08/2018 01:53 PM 43.34 32.72 9.14 57.20 20.12 24.0 Not Reported 3.13 S 7.83 SE 8.95 E No 0.000 No Precipitation     0.000 0.000 0.000 0.000 0.000 Not Reported Not Reported
11/08/2018 02:08 PM 44.42 33.26 8.96 56.84 20.12 22.0 Not Reported 2.01 SW 4.25 NE 9.17 E No 0.000 No Precipitation     0.000 0.000 0.000 0.000 0.000 Not Reported Not Reported
11/08/2018 02:23 PM 44.06 32.90 8.60 56.48 20.12 22.0 Not Reported 3.58 E 2.91 SE 5.82 SE No 0.000 No Precipitation     0.000 0.000 0.000 0.000 0.000 Not Reported Not Reported
11/08/2018 02:38 PM 44.42 33.08 8.42 55.22 20.12 22.0 Not Reported 3.13 N 4.92 E 7.16 S No 0.000 No Precipitation     0.000 0.000 0.000 0.000 0.000 Not Reported Not Reported
11/08/2018 02:53 PM 45.14 33.62 8.96 54.86 20.12 22.0 Not Reported 1.12 W 0.89 NW 6.04 E No 0.000 No Precipitation     0.000 0.000 0.000 0.000 0.000 Not Reported Not Reported
11/08/2018 03:08 PM 43.88 32.90 8.78 54.68 20.12 23.0 Not Reported 3.58 NW 2.91 N 3.58 S No 0.000 No Precipitation     0.000 0.000 0.000 0.000 0.000 Not Reported Not Reported
11/08/2018 03:23 PM 43.52 32.72 9.32 54.68 20.12 24.0 Not Reported 4.25 S 5.82 SE 7.16 SE No 0.000 No Precipitation     0.000 0.000 0.000 0.000 0.000 Not Reported Not Reported
11/08/2018 03:38 PM 42.44 32.00 8.96 53.06 20.12 24.0 Not Reported 4.03 SE 3.36 E 5.82 SE No 0.000 No Precipitation     0.000 0.000 0.000 0.000 0.000 Not Reported Not Reported
11/08/2018 03:53 PM 41.54 31.64 9.32 51.26 20.12 25.0 Not Reported 2.46 E 2.91 E 6.71 E No 0.000 No Precipitation     0.000 0.000 0.000 0.000 0.000 Not Reported Not Reported
11/08/2018 04:08 PM 40.28 30.92 9.50 48.92 20.12 27.0 Not Reported 4.47 SE 4.03 SE 4.47 SE No 0.000 No Precipitation     0.000 0.000 0.000 0.000 0.000 Not Reported Not Reported
11/08/2018 04:23 PM 39.92 30.92 10.22 45.68 20.12 28.0 Not Reported 3.36 S 5.14 SE 8.05 SE No 0.000 No Precipitation     0.000 0.000 0.000 0.000 0.000 Not Reported Not Reported
11/08/2018 04:38 PM 38.66 30.38 10.94 45.68 20.12 31.0 Not Reported 4.47 S 6.26 S 6.04 S No 0.000 No Precipitation     0.000 0.000 0.000 0.000 0.000 Not Reported Not Reported
11/08/2018 04:53 PM 37.94 29.84 10.94 45.68 20.12 31.0 Not Reported 1.12 SE 2.46 S 5.59 SE No 0.000 No Precipitation     0.000 0.000 0.000 0.000 0.000 Not Reported Not Reported
11/08/2018 05:08 PM 37.58 29.66 10.94 45.68 20.12 32.0 Not Reported 2.68 SW 4.47 S 5.14 SE No 0.000 No Precipitation     0.000 0.000 0.000 0.000 0.000 Not Reported Not Reported
11/08/2018 05:23 PM 37.22 29.30 10.76 45.68 20.12 32.0 Not Reported 2.24 N 0.00 NE 4.70 E No 0.000 No Precipitation     0.000 0.000 0.000 0.000 0.000 Not Reported Not Reported
11/08/2018 05:38 PM 33.26 26.96 10.94 45.68 20.12 38.0 Not Reported 1.57 N 0.67 W 2.68 NE No 0.000 No Precipitation     0.000 0.000 0.000 0.000 0.000 Not Reported Not Reported
11/08/2018 05:53 PM 31.64 25.52 9.86 45.68 20.12 39.0 Not Reported 1.79 NW 1.12 NW 2.01 NW No 0.000 No Precipitation     0.000 0.000 0.000 0.000 0.000 Not Reported Not Reported
11/08/2018 06:08 PM 30.38 24.62 10.22 45.68 20.12 42.0 Not Reported 1.57 N 1.57 NE 2.68 NW No 0.000 No Precipitation     0.000 0.000 0.000 0.000 0.000 Not Reported Not Reported
11/08/2018 06:23 PM 29.48 24.08 9.86 45.68 20.12 43.0 Not Reported 1.12 NW 1.12 NW 2.24 W No 0.000 No Precipitation     0.000 0.000 0.000 0.000 0.000 Not Reported Not Reported
11/08/2018 06:38 PM 28.58 23.54 10.40 45.68 20.12 45.0 Not Reported 1.12 N 0.67 NW 2.01 NW No 0.000 No Precipitation     0.000 0.000 0.000 0.000 0.000 Not Reported Not Reported
11/08/2018 06:53 PM 27.68 23.00 10.58 45.68 20.12 48.0 Not Reported 0.67 N 0.22 N 1.79 NW No 0.000 No Precipitation     0.000 0.000 0.000 0.000 0.000 Not Reported Not Reported
11/08/2018 07:08 PM 27.14 22.46 10.22 45.68 20.12 48.0 Not Reported 0.22 N 0.00 N 1.34 N No 0.000 No Precipitation     0.000 0.000 0.000 0.000 0.000 Not Reported Not Reported
11/08/2018 07:23 PM 26.24 21.92 10.22 45.68 20.12 49.0 Not Reported 0.00 N 0.45 N 1.57 N No 0.000 No Precipitation     0.000 0.000 0.000 0.000 0.000 Not Reported Not Reported
11/08/2018 07:38 PM 25.70 21.38 9.68 45.68 20.12 49.0 Not Reported 0.45 N 1.12 N 1.34 N No 0.000 No Precipitation     0.000 0.000 0.000 0.000 0.000 Not Reported Not Reported
11/08/2018 07:53 PM 24.98 20.84 9.68 45.68 20.12 51.0 Not Reported 0.89 NW 1.57 N 1.34 N No 0.000 No Precipitation     0.000 0.000 0.000 0.000 0.000 Not Reported Not Reported
11/08/2018 08:08 PM 24.98 20.84 9.86 45.68 20.12 52.0 Not Reported 0.89 N 1.12 N 1.79 N No 0.000 No Precipitation     0.000 0.000 0.000 0.000 0.000 Not Reported Not Reported
11/08/2018 08:23 PM 24.62 20.66 9.32 45.68 20.12 51.0 Not Reported 0.89 NW 1.12 NW 1.57 NW No 0.000 No Precipitation     0.000 0.000 0.000 0.000 0.000 Not Reported Not Reported
11/08/2018 08:38 PM 23.90 19.94 8.96 45.68 20.12 52.0 Not Reported 0.67 NW 0.00 NW 1.12 NW No 0.000 No Precipitation     0.000 0.000 0.000 0.000 0.000 Not Reported Not Reported
11/08/2018 08:53 PM 23.72 19.94 9.32 45.68 20.12 53.0 Not Reported 1.34 N 0.67 N 1.79 NW No 0.000 No Precipitation     0.000 0.000 0.000 0.000 0.000 Not Reported Not Reported
11/08/2018 09:08 PM 23.72 19.94 9.68 45.68 20.12 54.0 Not Reported 1.12 NE 1.57 N 1.57 N No 0.000 No Precipitation     0.000 0.000 0.000 0.000 0.000 Not Reported Not Reported
11/08/2018 09:23 PM 24.08 20.12 8.96 45.68 20.12 51.0 Not Reported 2.24 N 2.24 N 2.46 N No 0.000 No Precipitation     0.000 0.000 0.000 0.000 0.000 Not Reported Not Reported
11/08/2018 09:38 PM 24.62 20.48 9.14 45.68 20.12 51.0 Not Reported 2.24 N 1.57 NE 2.68 N No 0.000 No Precipitation     0.000 0.000 0.000 0.000 0.000 Not Reported Not Reported
11/08/2018 09:53 PM 24.08 20.30 9.68 45.68 20.12 53.0 Not Reported 1.57 NE 2.01 N 2.01 N No 0.000 No Precipitation     0.000 0.000 0.000 0.000 0.000 Not Reported Not Reported
11/08/2018 10:08 PM 24.44 20.48 9.32 45.68 20.12 51.0 Not Reported 2.46 N 2.24 N 2.46 N No 0.000 No Precipitation     0.000 0.000 0.000 0.000 0.000 Not Reported Not Reported
11/08/2018 10:23 PM 23.90 20.12 9.50 45.68 20.12 53.0 Not Reported 2.24 N 2.91 N 2.68 NE No 0.000 No Precipitation     0.000 0.000 0.000 0.000 0.000 Not Reported Not Reported
11/08/2018 10:38 PM 22.64 19.22 9.14 45.68 20.12 55.0 Not Reported 0.67 N 1.34 N 3.36 N No 0.000 No Precipitation     0.000 0.000 0.000 0.000 0.000 Not Reported Not Reported
11/08/2018 10:53 PM 21.74 18.32 8.42 45.68 20.12 56.0 Not Reported 0.00 N 0.00 S 1.79 NE No 0.000 No Precipitation     0.000 0.000 0.000 0.000 0.000 Not Reported Not Reported
11/08/2018 11:08 PM 21.02 17.96 8.42 45.68 20.12 57.0 Not Reported 0.67 NE 0.00 E 1.12 SE No 0.000 No Precipitation     0.000 0.000 0.000 0.000 0.000 Not Reported Not Reported
11/08/2018 11:23 PM 20.66 17.60 8.24 45.68 20.12 58.0 Not Reported 0.22 N 0.00 N 1.34 N No 0.000 No Precipitation     0.000 0.000 0.000 0.000 0.000 Not Reported Not Reported
11/08/2018 11:38 PM 20.30 17.42 8.24 45.68 20.12 58.0 Not Reported 0.00 N 0.00 N 1.34 NW No 0.000 No Precipitation     0.000 0.000 0.000 0.000 0.000 Not Reported Not Reported
11/08/2018 11:53 PM 20.12 17.06 7.16 45.68 20.12 56.0 Not Reported 0.00 N 0.00 N 1.34 N No 0.000 No Precipitation     0.000 0.000 0.000 0.000 0.000 Not Reported Not Reported